sensor_id;sensor_type;location;lat;lon;timestamp;pressure;altitude;pressure_sealevel;temperature;humidity
76730;BME280;65653;53.106;18.046;2023-07-31T00:01:30;100216.24;;;16.67;78.82
76730;BME280;65653;53.106;18.046;2023-07-31T00:03:56;100220.96;;;16.67;78.63
76730;BME280;65653;53.106;18.046;2023-07-31T00:06:23;100220.33;;;16.67;79.10
76730;BME280;65653;53.106;18.046;2023-07-31T00:08:49;100216.40;;;16.66;79.00
76730;BME280;65653;53.106;18.046;2023-07-31T00:11:16;100221.96;;;16.67;79.38
76730;BME280;65653;53.106;18.046;2023-07-31T00:13:42;100220.80;;;16.67;79.33
76730;BME280;65653;53.106;18.046;2023-07-31T00:16:12;100218.45;;;16.68;79.38
76730;BME280;65653;53.106;18.046;2023-07-31T00:18:38;100222.55;;;16.69;79.35
76730;BME280;65653;53.106;18.046;2023-07-31T00:21:04;100224.64;;;16.71;79.15
76730;BME280;65653;53.106;18.046;2023-07-31T00:23:31;100223.84;;;16.72;78.91
76730;BME280;65653;53.106;18.046;2023-07-31T00:25:57;100219.54;;;16.74;78.79
76730;BME280;65653;53.106;18.046;2023-07-31T00:28:24;100225.03;;;16.78;78.79
76730;BME280;65653;53.106;18.046;2023-07-31T00:30:50;100216.80;;;16.81;78.68
76730;BME280;65653;53.106;18.046;2023-07-31T00:33:17;100208.88;;;16.82;78.71
76730;BME280;65653;53.106;18.046;2023-07-31T00:35:43;100217.66;;;16.82;78.91
76730;BME280;65653;53.106;18.046;2023-07-31T00:38:09;100220.05;;;16.82;78.92
76730;BME280;65653;53.106;18.046;2023-07-31T00:40:36;100222.96;;;16.82;79.18
76730;BME280;65653;53.106;18.046;2023-07-31T00:43:03;100221.95;;;16.81;79.31
76730;BME280;65653;53.106;18.046;2023-07-31T00:45:30;100220.86;;;16.80;79.57
76730;BME280;65653;53.106;18.046;2023-07-31T00:47:57;100222.86;;;16.79;79.62
76730;BME280;65653;53.106;18.046;2023-07-31T00:50:25;100225.05;;;16.76;80.98
76730;BME280;65653;53.106;18.046;2023-07-31T00:52:51;100227.20;;;16.62;82.37
76730;BME280;65653;53.106;18.046;2023-07-31T00:55:18;100230.17;;;16.47;83.58
76730;BME280;65653;53.106;18.046;2023-07-31T00:57:45;100236.17;;;16.35;84.44
76730;BME280;65653;53.106;18.046;2023-07-31T01:00:12;100234.98;;;16.24;85.24
76730;BME280;65653;53.106;18.046;2023-07-31T01:02:38;100234.10;;;16.15;85.90
76730;BME280;65653;53.106;18.046;2023-07-31T01:05:05;100231.19;;;16.11;85.93
76730;BME280;65653;53.106;18.046;2023-07-31T01:07:44;100234.95;;;16.09;87.15
76730;BME280;65653;53.106;18.046;2023-07-31T01:10:20;100235.14;;;16.04;87.22
76730;BME280;65653;53.106;18.046;2023-07-31T01:12:50;100239.80;;;16.02;87.79
76730;BME280;65653;53.106;18.046;2023-07-31T01:15:17;100240.48;;;16.00;88.65
76730;BME280;65653;53.106;18.046;2023-07-31T01:17:44;100247.49;;;15.98;88.98
76730;BME280;65653;53.106;18.046;2023-07-31T01:20:21;100245.52;;;15.94;88.76
76730;BME280;65653;53.106;18.046;2023-07-31T01:26:12;100242.61;;;15.88;89.55
76730;BME280;65653;53.106;18.046;2023-07-31T01:31:22;100241.75;;;15.81;90.25
76730;BME280;65653;53.106;18.046;2023-07-31T01:33:51;100244.48;;;15.77;90.32
76730;BME280;65653;53.106;18.046;2023-07-31T01:36:20;100242.90;;;15.74;90.74
76730;BME280;65653;53.106;18.046;2023-07-31T01:38:46;100239.04;;;15.73;90.64
76730;BME280;65653;53.106;18.046;2023-07-31T01:41:13;100236.34;;;15.67;90.78
76730;BME280;65653;53.106;18.046;2023-07-31T01:43:40;100238.98;;;15.62;90.66
76730;BME280;65653;53.106;18.046;2023-07-31T01:46:06;100239.08;;;15.58;91.09
76730;BME280;65653;53.106;18.046;2023-07-31T01:48:32;100234.04;;;15.54;91.17
76730;BME280;65653;53.106;18.046;2023-07-31T01:51:02;100233.95;;;15.53;91.45
76730;BME280;65653;53.106;18.046;2023-07-31T01:53:31;100237.46;;;15.49;92.03
76730;BME280;65653;53.106;18.046;2023-07-31T01:55:57;100238.81;;;15.45;91.87
76730;BME280;65653;53.106;18.046;2023-07-31T01:58:24;100237.20;;;15.41;92.03
76730;BME280;65653;53.106;18.046;2023-07-31T02:00:50;100245.39;;;15.37;92.52
76730;BME280;65653;53.106;18.046;2023-07-31T02:03:17;100238.98;;;15.33;92.72
76730;BME280;65653;53.106;18.046;2023-07-31T02:05:47;100241.92;;;15.29;92.86
76730;BME280;65653;53.106;18.046;2023-07-31T02:08:15;100242.15;;;15.24;93.12
76730;BME280;65653;53.106;18.046;2023-07-31T02:10:42;100242.60;;;15.22;93.55
76730;BME280;65653;53.106;18.046;2023-07-31T02:13:09;100242.91;;;15.19;93.16
76730;BME280;65653;53.106;18.046;2023-07-31T02:15:36;100242.35;;;15.13;93.72
76730;BME280;65653;53.106;18.046;2023-07-31T02:18:03;100241.54;;;15.09;93.84
76730;BME280;65653;53.106;18.046;2023-07-31T02:20:29;100241.83;;;15.05;94.29
76730;BME280;65653;53.106;18.046;2023-07-31T02:22:56;100246.27;;;15.01;94.69
76730;BME280;65653;53.106;18.046;2023-07-31T02:25:22;100244.98;;;14.95;94.93
76730;BME280;65653;53.106;18.046;2023-07-31T02:27:49;100245.98;;;14.90;95.17
76730;BME280;65653;53.106;18.046;2023-07-31T02:30:16;100247.39;;;14.88;95.53
76730;BME280;65653;53.106;18.046;2023-07-31T02:32:43;100243.94;;;14.86;95.44
76730;BME280;65653;53.106;18.046;2023-07-31T02:35:09;100245.34;;;14.82;95.62
76730;BME280;65653;53.106;18.046;2023-07-31T02:37:36;100246.86;;;14.78;95.36
76730;BME280;65653;53.106;18.046;2023-07-31T02:40:03;100250.11;;;14.74;95.79
76730;BME280;65653;53.106;18.046;2023-07-31T02:42:33;100257.17;;;14.70;95.80
76730;BME280;65653;53.106;18.046;2023-07-31T02:44:59;100254.77;;;14.67;96.14
76730;BME280;65653;53.106;18.046;2023-07-31T02:47:26;100257.32;;;14.65;96.20
76730;BME280;65653;53.106;18.046;2023-07-31T02:49:52;100257.17;;;14.64;96.33
76730;BME280;65653;53.106;18.046;2023-07-31T02:52:18;100256.10;;;14.61;96.11
76730;BME280;65653;53.106;18.046;2023-07-31T02:54:45;100254.39;;;14.61;96.09
76730;BME280;65653;53.106;18.046;2023-07-31T02:57:12;100263.35;;;14.59;95.90
76730;BME280;65653;53.106;18.046;2023-07-31T02:59:39;100265.95;;;14.58;95.74
76730;BME280;65653;53.106;18.046;2023-07-31T03:02:05;100261.59;;;14.57;95.81
76730;BME280;65653;53.106;18.046;2023-07-31T03:04:32;100259.52;;;14.57;95.48
76730;BME280;65653;53.106;18.046;2023-07-31T03:06:59;100252.74;;;14.58;94.99
76730;BME280;65653;53.106;18.046;2023-07-31T03:09:25;100257.33;;;14.58;95.41
76730;BME280;65653;53.106;18.046;2023-07-31T03:11:52;100258.55;;;14.58;95.16
76730;BME280;65653;53.106;18.046;2023-07-31T03:14:18;100255.05;;;14.58;94.93
76730;BME280;65653;53.106;18.046;2023-07-31T03:16:45;100246.78;;;14.58;95.18
76730;BME280;65653;53.106;18.046;2023-07-31T03:19:11;100255.80;;;14.60;95.12
76730;BME280;65653;53.106;18.046;2023-07-31T03:21:38;100261.80;;;14.62;94.66
76730;BME280;65653;53.106;18.046;2023-07-31T03:24:05;100260.63;;;14.63;94.34
76730;BME280;65653;53.106;18.046;2023-07-31T03:26:32;100261.66;;;14.65;94.11
76730;BME280;65653;53.106;18.046;2023-07-31T03:28:59;100268.34;;;14.66;93.84
76730;BME280;65653;53.106;18.046;2023-07-31T03:31:25;100269.58;;;14.66;94.01
76730;BME280;65653;53.106;18.046;2023-07-31T03:33:51;100274.09;;;14.69;93.64
76730;BME280;65653;53.106;18.046;2023-07-31T03:36:18;100276.04;;;14.73;93.27
76730;BME280;65653;53.106;18.046;2023-07-31T03:38:46;100278.80;;;14.77;93.06
76730;BME280;65653;53.106;18.046;2023-07-31T03:41:13;100277.70;;;14.83;93.02
76730;BME280;65653;53.106;18.046;2023-07-31T03:43:39;100279.27;;;14.88;92.47
76730;BME280;65653;53.106;18.046;2023-07-31T03:46:06;100281.14;;;14.91;92.20
76730;BME280;65653;53.106;18.046;2023-07-31T03:48:32;100283.27;;;14.92;92.17
76730;BME280;65653;53.106;18.046;2023-07-31T03:50:59;100282.23;;;14.93;91.98
76730;BME280;65653;53.106;18.046;2023-07-31T03:53:25;100289.48;;;14.93;92.03
76730;BME280;65653;53.106;18.046;2023-07-31T03:55:52;100283.13;;;14.93;91.63
76730;BME280;65653;53.106;18.046;2023-07-31T03:58:18;100281.77;;;14.97;91.19
76730;BME280;65653;53.106;18.046;2023-07-31T04:00:45;100283.19;;;15.16;90.36
76730;BME280;65653;53.106;18.046;2023-07-31T04:03:12;100289.23;;;15.90;87.19
76730;BME280;65653;53.106;18.046;2023-07-31T04:05:38;100286.92;;;16.34;84.42
76730;BME280;65653;53.106;18.046;2023-07-31T04:08:06;100284.71;;;16.42;83.28
76730;BME280;65653;53.106;18.046;2023-07-31T04:10:33;100286.98;;;16.16;84.03
76730;BME280;65653;53.106;18.046;2023-07-31T04:13:00;100287.71;;;16.01;84.48
76730;BME280;65653;53.106;18.046;2023-07-31T04:15:27;100283.77;;;15.74;85.52
76730;BME280;65653;53.106;18.046;2023-07-31T04:17:53;100276.96;;;15.54;86.39
76730;BME280;65653;53.106;18.046;2023-07-31T04:20:20;100275.47;;;15.40;86.83
76730;BME280;65653;53.106;18.046;2023-07-31T04:22:47;100276.20;;;15.28;87.20
76730;BME280;65653;53.106;18.046;2023-07-31T04:25:13;100278.73;;;15.20;87.34
76730;BME280;65653;53.106;18.046;2023-07-31T04:27:40;100281.55;;;15.14;87.49
76730;BME280;65653;53.106;18.046;2023-07-31T04:30:08;100280.16;;;15.09;87.67
76730;BME280;65653;53.106;18.046;2023-07-31T04:32:34;100275.77;;;15.08;87.53
76730;BME280;65653;53.106;18.046;2023-07-31T04:35:02;100274.52;;;15.07;87.53
76730;BME280;65653;53.106;18.046;2023-07-31T04:37:29;100276.56;;;15.09;87.31
76730;BME280;65653;53.106;18.046;2023-07-31T04:39:56;100271.41;;;15.10;87.21
76730;BME280;65653;53.106;18.046;2023-07-31T04:42:23;100269.95;;;15.15;87.12
76730;BME280;65653;53.106;18.046;2023-07-31T04:44:49;100275.57;;;15.17;86.87
76730;BME280;65653;53.106;18.046;2023-07-31T04:47:16;100279.85;;;15.18;87.03
76730;BME280;65653;53.106;18.046;2023-07-31T04:49:43;100281.34;;;15.20;86.74
76730;BME280;65653;53.106;18.046;2023-07-31T04:52:09;100283.59;;;15.26;86.75
76730;BME280;65653;53.106;18.046;2023-07-31T04:54:36;100288.83;;;15.36;86.10
76730;BME280;65653;53.106;18.046;2023-07-31T04:57:03;100288.84;;;15.48;85.60
76730;BME280;65653;53.106;18.046;2023-07-31T04:59:29;100287.23;;;15.70;84.42
76730;BME280;65653;53.106;18.046;2023-07-31T05:01:56;100289.86;;;15.85;83.71
76730;BME280;65653;53.106;18.046;2023-07-31T05:04:22;100288.14;;;16.11;82.27
76730;BME280;65653;53.106;18.046;2023-07-31T05:06:48;100289.13;;;16.09;81.41
76730;BME280;65653;53.106;18.046;2023-07-31T05:09:15;100291.36;;;16.04;81.48
76730;BME280;65653;53.106;18.046;2023-07-31T05:11:41;100296.96;;;16.02;81.53
76730;BME280;65653;53.106;18.046;2023-07-31T05:14:10;100293.56;;;16.06;81.43
76730;BME280;65653;53.106;18.046;2023-07-31T05:16:37;100292.30;;;16.19;80.90
76730;BME280;65653;53.106;18.046;2023-07-31T05:19:04;100290.41;;;16.36;79.63
76730;BME280;65653;53.106;18.046;2023-07-31T05:21:31;100295.43;;;16.50;78.42
76730;BME280;65653;53.106;18.046;2023-07-31T05:23:57;100294.73;;;16.61;78.10
76730;BME280;65653;53.106;18.046;2023-07-31T05:26:25;100290.71;;;16.65;77.63
76730;BME280;65653;53.106;18.046;2023-07-31T05:28:51;100289.89;;;16.69;77.18
76730;BME280;65653;53.106;18.046;2023-07-31T05:31:18;100289.55;;;16.70;76.76
76730;BME280;65653;53.106;18.046;2023-07-31T05:33:45;100286.13;;;16.82;75.67
76730;BME280;65653;53.106;18.046;2023-07-31T05:36:11;100283.48;;;16.88;76.50
76730;BME280;65653;53.106;18.046;2023-07-31T05:38:38;100285.34;;;16.93;75.98
76730;BME280;65653;53.106;18.046;2023-07-31T05:41:04;100285.39;;;16.93;75.56
76730;BME280;65653;53.106;18.046;2023-07-31T05:43:31;100280.65;;;17.01;75.29
76730;BME280;65653;53.106;18.046;2023-07-31T05:45:57;100280.63;;;17.12;74.87
76730;BME280;65653;53.106;18.046;2023-07-31T05:48:24;100283.48;;;17.20;74.71
76730;BME280;65653;53.106;18.046;2023-07-31T05:50:50;100280.35;;;17.24;74.24
76730;BME280;65653;53.106;18.046;2023-07-31T05:53:17;100279.98;;;17.28;74.10
76730;BME280;65653;53.106;18.046;2023-07-31T05:55:44;100278.57;;;17.36;73.99
76730;BME280;65653;53.106;18.046;2023-07-31T05:58:10;100279.78;;;17.39;73.43
76730;BME280;65653;53.106;18.046;2023-07-31T06:00:37;100282.73;;;17.49;73.32
76730;BME280;65653;53.106;18.046;2023-07-31T06:03:04;100285.70;;;17.53;72.67
76730;BME280;65653;53.106;18.046;2023-07-31T06:05:31;100281.91;;;17.54;72.48
76730;BME280;65653;53.106;18.046;2023-07-31T06:07:58;100291.13;;;17.57;72.29
76730;BME280;65653;53.106;18.046;2023-07-31T06:10:24;100286.94;;;17.67;72.54
76730;BME280;65653;53.106;18.046;2023-07-31T06:12:52;100290.40;;;17.90;72.20
76730;BME280;65653;53.106;18.046;2023-07-31T06:15:19;100294.04;;;17.99;70.67
76730;BME280;65653;53.106;18.046;2023-07-31T06:17:46;100289.56;;;18.05;70.31
76730;BME280;65653;53.106;18.046;2023-07-31T06:20:12;100289.26;;;18.09;69.19
76730;BME280;65653;53.106;18.046;2023-07-31T06:22:39;100293.63;;;18.03;69.33
76730;BME280;65653;53.106;18.046;2023-07-31T06:25:07;100292.20;;;18.21;69.25
76730;BME280;65653;53.106;18.046;2023-07-31T06:27:33;100290.29;;;18.56;68.63
76730;BME280;65653;53.106;18.046;2023-07-31T06:30:00;100293.59;;;18.74;67.84
76730;BME280;65653;53.106;18.046;2023-07-31T06:32:26;100290.98;;;18.85;67.28
76730;BME280;65653;53.106;18.046;2023-07-31T06:34:53;100291.88;;;19.00;67.03
76730;BME280;65653;53.106;18.046;2023-07-31T06:37:20;100286.92;;;19.06;65.81
76730;BME280;65653;53.106;18.046;2023-07-31T06:39:46;100288.27;;;19.15;65.50
76730;BME280;65653;53.106;18.046;2023-07-31T06:42:13;100288.84;;;19.27;65.08
76730;BME280;65653;53.106;18.046;2023-07-31T06:44:39;100285.45;;;19.38;63.73
76730;BME280;65653;53.106;18.046;2023-07-31T06:47:06;100288.81;;;19.47;63.45
76730;BME280;65653;53.106;18.046;2023-07-31T06:49:32;100287.61;;;19.53;62.15
76730;BME280;65653;53.106;18.046;2023-07-31T06:51:58;100283.97;;;19.57;62.32
76730;BME280;65653;53.106;18.046;2023-07-31T06:54:25;100286.62;;;19.61;61.59
76730;BME280;65653;53.106;18.046;2023-07-31T06:56:51;100282.91;;;19.61;61.40
76730;BME280;65653;53.106;18.046;2023-07-31T06:59:18;100282.62;;;19.58;61.50
76730;BME280;65653;53.106;18.046;2023-07-31T07:01:44;100282.16;;;19.66;62.28
76730;BME280;65653;53.106;18.046;2023-07-31T07:04:11;100282.75;;;19.75;62.48
76730;BME280;65653;53.106;18.046;2023-07-31T07:06:37;100286.21;;;19.72;62.75
76730;BME280;65653;53.106;18.046;2023-07-31T07:09:04;100282.69;;;19.74;62.43
76730;BME280;65653;53.106;18.046;2023-07-31T07:11:31;100283.13;;;19.86;62.84
76730;BME280;65653;53.106;18.046;2023-07-31T07:13:57;100283.44;;;20.01;62.48
76730;BME280;65653;53.106;18.046;2023-07-31T07:16:24;100282.45;;;20.09;62.18
76730;BME280;65653;53.106;18.046;2023-07-31T07:18:50;100281.43;;;20.11;61.99
76730;BME280;65653;53.106;18.046;2023-07-31T07:21:17;100285.17;;;20.17;62.19
76730;BME280;65653;53.106;18.046;2023-07-31T07:23:44;100289.38;;;20.14;61.08
76730;BME280;65653;53.106;18.046;2023-07-31T07:26:10;100294.05;;;20.17;61.67
76730;BME280;65653;53.106;18.046;2023-07-31T07:28:37;100288.77;;;20.32;61.81
76730;BME280;65653;53.106;18.046;2023-07-31T07:31:03;100287.55;;;20.54;61.23
76730;BME280;65653;53.106;18.046;2023-07-31T07:33:30;100288.16;;;20.76;59.94
76730;BME280;65653;53.106;18.046;2023-07-31T07:36:00;100290.35;;;20.89;59.33
76730;BME280;65653;53.106;18.046;2023-07-31T07:38:27;100288.88;;;21.00;59.07
76730;BME280;65653;53.106;18.046;2023-07-31T07:40:53;100285.51;;;21.02;57.91
76730;BME280;65653;53.106;18.046;2023-07-31T07:43:20;100291.23;;;21.16;57.58
76730;BME280;65653;53.106;18.046;2023-07-31T07:45:46;100290.66;;;21.45;57.09
76730;BME280;65653;53.106;18.046;2023-07-31T07:48:13;100291.06;;;21.58;56.42
76730;BME280;65653;53.106;18.046;2023-07-31T07:50:39;100286.39;;;21.68;55.55
76730;BME280;65653;53.106;18.046;2023-07-31T07:53:06;100285.13;;;21.76;55.59
76730;BME280;65653;53.106;18.046;2023-07-31T07:55:32;100282.80;;;21.95;54.46
76730;BME280;65653;53.106;18.046;2023-07-31T07:57:59;100282.97;;;21.95;54.92
76730;BME280;65653;53.106;18.046;2023-07-31T08:00:25;100287.23;;;22.06;54.07
76730;BME280;65653;53.106;18.046;2023-07-31T08:02:52;100283.77;;;22.14;54.06
76730;BME280;65653;53.106;18.046;2023-07-31T08:05:19;100288.50;;;22.04;53.15
76730;BME280;65653;53.106;18.046;2023-07-31T08:07:46;100283.23;;;21.99;53.54
76730;BME280;65653;53.106;18.046;2023-07-31T08:10:13;100279.17;;;21.88;53.13
76730;BME280;65653;53.106;18.046;2023-07-31T08:12:39;100279.40;;;21.83;53.65
76730;BME280;65653;53.106;18.046;2023-07-31T08:15:06;100283.02;;;21.85;53.28
76730;BME280;65653;53.106;18.046;2023-07-31T08:17:33;100282.14;;;21.93;53.12
76730;BME280;65653;53.106;18.046;2023-07-31T08:20:00;100285.84;;;22.15;52.98
76730;BME280;65653;53.106;18.046;2023-07-31T08:22:27;100284.41;;;22.27;51.85
76730;BME280;65653;53.106;18.046;2023-07-31T08:24:53;100282.83;;;22.27;50.91
76730;BME280;65653;53.106;18.046;2023-07-31T08:27:20;100282.89;;;22.33;51.29
76730;BME280;65653;53.106;18.046;2023-07-31T08:29:46;100281.13;;;22.28;50.61
76730;BME280;65653;53.106;18.046;2023-07-31T08:32:13;100281.69;;;22.30;50.46
76730;BME280;65653;53.106;18.046;2023-07-31T08:34:39;100282.98;;;22.30;49.64
76730;BME280;65653;53.106;18.046;2023-07-31T08:37:06;100273.98;;;22.39;49.21
76730;BME280;65653;53.106;18.046;2023-07-31T08:39:32;100278.26;;;22.68;49.09
76730;BME280;65653;53.106;18.046;2023-07-31T08:41:59;100270.63;;;22.88;48.16
76730;BME280;65653;53.106;18.046;2023-07-31T08:44:26;100265.09;;;23.31;48.07
76730;BME280;65653;53.106;18.046;2023-07-31T08:46:53;100264.04;;;23.81;46.43
76730;BME280;65653;53.106;18.046;2023-07-31T08:49:21;100254.73;;;23.91;46.39
76730;BME280;65653;53.106;18.046;2023-07-31T08:51:49;100252.27;;;24.07;45.65
76730;BME280;65653;53.106;18.046;2023-07-31T08:54:16;100252.19;;;24.25;45.87
76730;BME280;65653;53.106;18.046;2023-07-31T08:56:44;100258.03;;;24.20;46.44
76730;BME280;65653;53.106;18.046;2023-07-31T08:59:11;100254.24;;;24.03;46.43
76730;BME280;65653;53.106;18.046;2023-07-31T09:01:43;100250.42;;;23.85;46.71
76730;BME280;65653;53.106;18.046;2023-07-31T09:04:10;100254.05;;;23.67;47.35
76730;BME280;65653;53.106;18.046;2023-07-31T09:06:39;100247.13;;;23.55;47.74
76730;BME280;65653;53.106;18.046;2023-07-31T09:09:06;100243.23;;;23.30;48.45
76730;BME280;65653;53.106;18.046;2023-07-31T09:11:33;100248.46;;;22.89;49.55
76730;BME280;65653;53.106;18.046;2023-07-31T09:14:00;100246.13;;;22.62;50.81
76730;BME280;65653;53.106;18.046;2023-07-31T09:16:28;100246.25;;;22.80;50.90
76730;BME280;65653;53.106;18.046;2023-07-31T09:18:58;100234.42;;;23.03;50.72
76730;BME280;65653;53.106;18.046;2023-07-31T09:21:28;100228.92;;;23.40;49.70
76730;BME280;65653;53.106;18.046;2023-07-31T09:23:54;100228.09;;;23.96;48.25
76730;BME280;65653;53.106;18.046;2023-07-31T09:26:34;100224.58;;;24.38;47.99
76730;BME280;65653;53.106;18.046;2023-07-31T09:29:05;100220.56;;;24.36;47.92
76730;BME280;65653;53.106;18.046;2023-07-31T09:31:42;100219.54;;;23.79;48.37
76730;BME280;65653;53.106;18.046;2023-07-31T09:34:09;100218.09;;;23.14;49.86
76730;BME280;65653;53.106;18.046;2023-07-31T09:36:49;100215.31;;;22.89;50.43
76730;BME280;65653;53.106;18.046;2023-07-31T09:39:17;100212.10;;;23.34;49.47
76730;BME280;65653;53.106;18.046;2023-07-31T09:41:55;100213.41;;;23.33;49.90
76730;BME280;65653;53.106;18.046;2023-07-31T09:44:43;100214.47;;;22.83;51.16
76730;BME280;65653;53.106;18.046;2023-07-31T09:47:23;100208.69;;;22.34;52.51
76730;BME280;65653;53.106;18.046;2023-07-31T09:49:56;100211.80;;;21.69;54.39
76730;BME280;65653;53.106;18.046;2023-07-31T09:52:26;100210.54;;;21.27;55.42
76730;BME280;65653;53.106;18.046;2023-07-31T09:54:56;100215.45;;;20.96;56.50
76730;BME280;65653;53.106;18.046;2023-07-31T09:57:23;100223.11;;;20.48;59.92
76730;BME280;65653;53.106;18.046;2023-07-31T09:59:54;100220.23;;;19.93;63.08
76730;BME280;65653;53.106;18.046;2023-07-31T10:02:21;100230.02;;;19.45;65.19
76730;BME280;65653;53.106;18.046;2023-07-31T10:05:04;100240.05;;;18.90;69.50
76730;BME280;65653;53.106;18.046;2023-07-31T10:07:39;100246.08;;;18.36;74.33
76730;BME280;65653;53.106;18.046;2023-07-31T10:10:09;100233.20;;;18.34;75.48
76730;BME280;65653;53.106;18.046;2023-07-31T10:12:38;100217.29;;;18.61;74.35
76730;BME280;65653;53.106;18.046;2023-07-31T10:15:06;100209.52;;;19.00;73.32
76730;BME280;65653;53.106;18.046;2023-07-31T10:17:34;100208.20;;;19.30;74.10
76730;BME280;65653;53.106;18.046;2023-07-31T10:20:02;100203.67;;;19.34;74.40
76730;BME280;65653;53.106;18.046;2023-07-31T10:22:31;100205.85;;;19.41;74.52
76730;BME280;65653;53.106;18.046;2023-07-31T10:24:59;100201.59;;;19.73;73.15
76730;BME280;65653;53.106;18.046;2023-07-31T10:27:28;100192.77;;;20.32;71.28
76730;BME280;65653;53.106;18.046;2023-07-31T10:29:58;100186.83;;;21.04;69.13
76730;BME280;65653;53.106;18.046;2023-07-31T10:32:26;100184.17;;;21.37;68.15
76730;BME280;65653;53.106;18.046;2023-07-31T10:34:53;100184.29;;;21.39;66.97
76730;BME280;65653;53.106;18.046;2023-07-31T10:37:21;100180.84;;;21.11;68.14
76730;BME280;65653;53.106;18.046;2023-07-31T10:40:03;100178.91;;;20.88;68.61
76730;BME280;65653;53.106;18.046;2023-07-31T10:42:35;100170.55;;;21.02;69.09
76730;BME280;65653;53.106;18.046;2023-07-31T10:45:04;100167.91;;;21.33;67.60
76730;BME280;65653;53.106;18.046;2023-07-31T10:47:59;100161.80;;;21.60;67.81
76730;BME280;65653;53.106;18.046;2023-07-31T10:50:31;100146.91;;;22.83;64.44
76730;BME280;65653;53.106;18.046;2023-07-31T10:52:59;100144.05;;;23.05;63.37
76730;BME280;65653;53.106;18.046;2023-07-31T10:57:57;100137.45;;;23.37;62.40
76730;BME280;65653;53.106;18.046;2023-07-31T11:00:28;100137.34;;;22.95;60.72
76730;BME280;65653;53.106;18.046;2023-07-31T11:03:04;100138.16;;;22.62;60.52
76730;BME280;65653;53.106;18.046;2023-07-31T11:05:41;100134.16;;;22.41;60.53
76730;BME280;65653;53.106;18.046;2023-07-31T11:10:46;100133.88;;;21.62;61.71
76730;BME280;65653;53.106;18.046;2023-07-31T11:13:13;100135.48;;;21.14;62.58
76730;BME280;65653;53.106;18.046;2023-07-31T11:15:40;100128.82;;;20.68;62.54
76730;BME280;65653;53.106;18.046;2023-07-31T11:18:06;100136.64;;;20.35;63.20
76730;BME280;65653;53.106;18.046;2023-07-31T11:20:36;100134.48;;;20.10;64.06
76730;BME280;65653;53.106;18.046;2023-07-31T11:23:06;100143.32;;;19.93;63.80
76730;BME280;65653;53.106;18.046;2023-07-31T11:25:33;100139.48;;;19.73;63.65
76730;BME280;65653;53.106;18.046;2023-07-31T11:28:08;100144.13;;;19.61;63.81
76730;BME280;65653;53.106;18.046;2023-07-31T11:30:35;100144.66;;;19.52;64.71
76730;BME280;65653;53.106;18.046;2023-07-31T11:33:03;100142.84;;;19.44;65.30
76730;BME280;65653;53.106;18.046;2023-07-31T11:35:36;100148.61;;;19.29;65.97
76730;BME280;65653;53.106;18.046;2023-07-31T11:38:07;100154.95;;;19.24;67.38
76730;BME280;65653;53.106;18.046;2023-07-31T11:40:44;100155.17;;;19.38;67.86
76730;BME280;65653;53.106;18.046;2023-07-31T11:43:11;100147.30;;;19.81;66.44
76730;BME280;65653;53.106;18.046;2023-07-31T11:45:55;100141.18;;;20.03;65.85
76730;BME280;65653;53.106;18.046;2023-07-31T11:48:26;100147.66;;;19.98;65.61
76730;BME280;65653;53.106;18.046;2023-07-31T11:50:57;100141.38;;;20.16;65.17
76730;BME280;65653;53.106;18.046;2023-07-31T11:53:42;100141.86;;;20.51;65.28
76730;BME280;65653;53.106;18.046;2023-07-31T11:56:12;100144.02;;;21.17;63.67
76730;BME280;65653;53.106;18.046;2023-07-31T11:58:40;100147.25;;;22.08;60.76
76730;BME280;65653;53.106;18.046;2023-07-31T12:01:10;100145.24;;;21.67;61.29
76730;BME280;65653;53.106;18.046;2023-07-31T12:03:38;100143.73;;;21.35;62.97
76730;BME280;65653;53.106;18.046;2023-07-31T12:06:07;100144.41;;;21.05;63.90
76730;BME280;65653;53.106;18.046;2023-07-31T12:08:36;100143.60;;;20.89;64.05
76730;BME280;65653;53.106;18.046;2023-07-31T12:11:05;100147.17;;;20.86;64.03
76730;BME280;65653;53.106;18.046;2023-07-31T12:13:33;100139.90;;;21.07;63.00
76730;BME280;65653;53.106;18.046;2023-07-31T12:16:00;100139.46;;;21.42;61.43
76730;BME280;65653;53.106;18.046;2023-07-31T12:18:37;100137.48;;;21.71;60.42
76730;BME280;65653;53.106;18.046;2023-07-31T12:21:07;100130.86;;;22.20;58.08
76730;BME280;65653;53.106;18.046;2023-07-31T12:23:36;100127.73;;;23.01;55.94
76730;BME280;65653;53.106;18.046;2023-07-31T12:26:03;100120.56;;;24.22;52.20
76730;BME280;65653;53.106;18.046;2023-07-31T12:28:34;100113.69;;;24.18;51.72
76730;BME280;65653;53.106;18.046;2023-07-31T12:31:01;100114.17;;;23.53;53.68
76730;BME280;65653;53.106;18.046;2023-07-31T12:33:35;100109.30;;;23.31;54.68
76730;BME280;65653;53.106;18.046;2023-07-31T12:36:03;100104.33;;;23.90;53.28
76730;BME280;65653;53.106;18.046;2023-07-31T12:38:30;100106.73;;;23.57;53.85
76730;BME280;65653;53.106;18.046;2023-07-31T12:40:57;100102.74;;;22.82;55.70
76730;BME280;65653;53.106;18.046;2023-07-31T12:43:23;100103.17;;;22.30;57.15
76730;BME280;65653;53.106;18.046;2023-07-31T12:45:54;100104.91;;;21.86;58.27
76730;BME280;65653;53.106;18.046;2023-07-31T12:48:22;100109.58;;;21.47;59.47
76730;BME280;65653;53.106;18.046;2023-07-31T12:50:48;100106.21;;;21.34;59.67
76730;BME280;65653;53.106;18.046;2023-07-31T12:53:16;100107.93;;;21.00;60.66
76730;BME280;65653;53.106;18.046;2023-07-31T12:55:42;100099.92;;;20.54;62.07